sensor_id;sensor_type;location;lat;lon;timestamp;temperature;humidity
14995;DHT22;7593;49.006;8.372;2022-08-19T00:01:50;21.40;99.90
14995;DHT22;7593;49.006;8.372;2022-08-19T00:04:19;21.50;99.90
14995;DHT22;7593;49.006;8.372;2022-08-19T00:06:47;21.50;99.90
14995;DHT22;7593;49.006;8.372;2022-08-19T00:09:16;21.50;99.90
14995;DHT22;7593;49.006;8.372;2022-08-19T00:11:45;21.50;99.90
14995;DHT22;7593;49.006;8.372;2022-08-19T00:14:14;21.50;99.90
14995;DHT22;7593;49.006;8.372;2022-08-19T00:16:44;21.50;99.90
14995;DHT22;7593;49.006;8.372;2022-08-19T00:19:12;21.40;99.90
14995;DHT22;7593;49.006;8.372;2022-08-19T00:21:39;21.40;99.90
14995;DHT22;7593;49.006;8.372;2022-08-19T00:24:06;21.30;99.90
14995;DHT22;7593;49.006;8.372;2022-08-19T00:26:35;21.30;99.90
14995;DHT22;7593;49.006;8.372;2022-08-19T00:29:04;21.30;99.90
14995;DHT22;7593;49.006;8.372;2022-08-19T00:31:31;21.30;99.90
14995;DHT22;7593;49.006;8.372;2022-08-19T00:33:58;21.30;99.90
14995;DHT22;7593;49.006;8.372;2022-08-19T00:36:26;21.30;99.90
14995;DHT22;7593;49.006;8.372;2022-08-19T00:38:54;21.30;99.90
14995;DHT22;7593;49.006;8.372;2022-08-19T00:41:23;21.30;99.90
14995;DHT22;7593;49.006;8.372;2022-08-19T00:44:01;21.30;99.90
14995;DHT22;7593;49.006;8.372;2022-08-19T00:46:31;21.30;99.90
14995;DHT22;7593;49.006;8.372;2022-08-19T00:48:58;21.30;99.90
14995;DHT22;7593;49.006;8.372;2022-08-19T00:51:27;21.40;99.90
14995;DHT22;7593;49.006;8.372;2022-08-19T00:53:57;21.40;99.90
14995;DHT22;7593;49.006;8.372;2022-08-19T00:56:24;21.40;99.90
14995;DHT22;7593;49.006;8.372;2022-08-19T00:58:55;21.40;99.90
14995;DHT22;7593;49.006;8.372;2022-08-19T01:01:23;21.40;99.90
14995;DHT22;7593;49.006;8.372;2022-08-19T01:03:51;21.40;99.90
14995;DHT22;7593;49.006;8.372;2022-08-19T01:06:18;21.30;99.90
14995;DHT22;7593;49.006;8.372;2022-08-19T01:08:45;21.30;99.90
14995;DHT22;7593;49.006;8.372;2022-08-19T01:11:12;21.30;99.90
14995;DHT22;7593;49.006;8.372;2022-08-19T01:13:39;21.30;99.90
14995;DHT22;7593;49.006;8.372;2022-08-19T01:16:08;21.20;99.90
14995;DHT22;7593;49.006;8.372;2022-08-19T01:18:38;21.30;99.90
14995;DHT22;7593;49.006;8.372;2022-08-19T01:21:10;21.20;99.90
14995;DHT22;7593;49.006;8.372;2022-08-19T01:23:43;21.20;99.90
14995;DHT22;7593;49.006;8.372;2022-08-19T01:26:14;21.20;99.90
14995;DHT22;7593;49.006;8.372;2022-08-19T01:28:42;21.10;99.90
14995;DHT22;7593;49.006;8.372;2022-08-19T01:31:13;21.10;99.90
14995;DHT22;7593;49.006;8.372;2022-08-19T01:33:40;21.10;99.90
14995;DHT22;7593;49.006;8.372;2022-08-19T01:36:09;21.00;99.90
14995;DHT22;7593;49.006;8.372;2022-08-19T01:38:40;21.00;99.90
14995;DHT22;7593;49.006;8.372;2022-08-19T01:41:10;21.00;99.90
14995;DHT22;7593;49.006;8.372;2022-08-19T01:43:37;21.00;99.90
14995;DHT22;7593;49.006;8.372;2022-08-19T01:46:04;21.00;99.90
14995;DHT22;7593;49.006;8.372;2022-08-19T01:48:34;20.90;99.90
14995;DHT22;7593;49.006;8.372;2022-08-19T01:51:01;20.90;99.90
14995;DHT22;7593;49.006;8.372;2022-08-19T01:53:28;20.90;99.90
14995;DHT22;7593;49.006;8.372;2022-08-19T01:55:55;20.90;99.90
14995;DHT22;7593;49.006;8.372;2022-08-19T01:58:27;20.90;99.90
14995;DHT22;7593;49.006;8.372;2022-08-19T02:00:56;20.90;99.90
14995;DHT22;7593;49.006;8.372;2022-08-19T02:03:24;20.90;99.90
14995;DHT22;7593;49.006;8.372;2022-08-19T02:05:54;20.90;99.90
14995;DHT22;7593;49.006;8.372;2022-08-19T02:08:21;20.90;99.90
14995;DHT22;7593;49.006;8.372;2022-08-19T02:10:48;20.90;99.90
14995;DHT22;7593;49.006;8.372;2022-08-19T02:13:16;20.90;99.90
14995;DHT22;7593;49.006;8.372;2022-08-19T02:15:44;20.90;99.90
14995;DHT22;7593;49.006;8.372;2022-08-19T02:18:12;20.90;99.90
14995;DHT22;7593;49.006;8.372;2022-08-19T02:20:40;20.90;99.90
14995;DHT22;7593;49.006;8.372;2022-08-19T02:23:09;20.90;99.90
14995;DHT22;7593;49.006;8.372;2022-08-19T02:25:36;20.90;99.90
14995;DHT22;7593;49.006;8.372;2022-08-19T02:28:03;20.90;99.90
14995;DHT22;7593;49.006;8.372;2022-08-19T02:30:30;21.00;99.90
14995;DHT22;7593;49.006;8.372;2022-08-19T02:32:58;20.90;99.90
14995;DHT22;7593;49.006;8.372;2022-08-19T02:35:25;20.90;99.90
14995;DHT22;7593;49.006;8.372;2022-08-19T02:37:52;20.90;99.90
14995;DHT22;7593;49.006;8.372;2022-08-19T02:40:36;20.90;99.90
14995;DHT22;7593;49.006;8.372;2022-08-19T02:43:04;20.90;99.90
14995;DHT22;7593;49.006;8.372;2022-08-19T02:45:32;20.90;99.90
14995;DHT22;7593;49.006;8.372;2022-08-19T02:48:02;20.80;99.90
14995;DHT22;7593;49.006;8.372;2022-08-19T02:50:29;20.80;99.90
14995;DHT22;7593;49.006;8.372;2022-08-19T02:52:56;20.70;99.90
14995;DHT22;7593;49.006;8.372;2022-08-19T02:55:23;20.70;99.90
14995;DHT22;7593;49.006;8.372;2022-08-19T02:57:50;20.70;99.90
14995;DHT22;7593;49.006;8.372;2022-08-19T03:00:17;20.60;99.90
14995;DHT22;7593;49.006;8.372;2022-08-19T03:02:44;20.70;99.90
14995;DHT22;7593;49.006;8.372;2022-08-19T03:05:14;20.70;99.90
14995;DHT22;7593;49.006;8.372;2022-08-19T03:07:41;20.60;99.90
14995;DHT22;7593;49.006;8.372;2022-08-19T03:10:08;20.60;99.90
14995;DHT22;7593;49.006;8.372;2022-08-19T03:12:36;20.60;99.90
14995;DHT22;7593;49.006;8.372;2022-08-19T03:15:05;20.60;99.90
14995;DHT22;7593;49.006;8.372;2022-08-19T03:17:32;20.50;99.90
14995;DHT22;7593;49.006;8.372;2022-08-19T03:19:59;20.50;99.90
14995;DHT22;7593;49.006;8.372;2022-08-19T03:22:27;20.50;99.90
14995;DHT22;7593;49.006;8.372;2022-08-19T03:24:55;20.50;99.90
14995;DHT22;7593;49.006;8.372;2022-08-19T03:27:22;20.50;99.90
14995;DHT22;7593;49.006;8.372;2022-08-19T03:29:49;20.40;99.90
14995;DHT22;7593;49.006;8.372;2022-08-19T03:32:16;20.40;99.90
14995;DHT22;7593;49.006;8.372;2022-08-19T03:34:42;20.40;99.90
14995;DHT22;7593;49.006;8.372;2022-08-19T03:37:11;20.40;99.90
14995;DHT22;7593;49.006;8.372;2022-08-19T03:39:40;20.30;99.90
14995;DHT22;7593;49.006;8.372;2022-08-19T03:42:07;20.30;99.90
14995;DHT22;7593;49.006;8.372;2022-08-19T03:44:35;20.40;99.90
14995;DHT22;7593;49.006;8.372;2022-08-19T03:47:03;20.30;99.90
14995;DHT22;7593;49.006;8.372;2022-08-19T03:49:31;20.30;99.90
14995;DHT22;7593;49.006;8.372;2022-08-19T03:52:00;20.30;99.90
14995;DHT22;7593;49.006;8.372;2022-08-19T03:54:28;20.30;99.90
14995;DHT22;7593;49.006;8.372;2022-08-19T03:56:57;20.40;99.90
14995;DHT22;7593;49.006;8.372;2022-08-19T03:59:27;20.40;99.90
14995;DHT22;7593;49.006;8.372;2022-08-19T04:01:56;20.40;99.90
14995;DHT22;7593;49.006;8.372;2022-08-19T04:04:24;20.30;99.90
14995;DHT22;7593;49.006;8.372;2022-08-19T04:06:51;20.30;99.90
14995;DHT22;7593;49.006;8.372;2022-08-19T04:09:19;20.30;99.90
14995;DHT22;7593;49.006;8.372;2022-08-19T04:11:49;20.20;99.90
14995;DHT22;7593;49.006;8.372;2022-08-19T04:14:22;20.20;99.90
14995;DHT22;7593;49.006;8.372;2022-08-19T04:16:49;20.20;99.90
14995;DHT22;7593;49.006;8.372;2022-08-19T04:19:18;20.20;99.90
14995;DHT22;7593;49.006;8.372;2022-08-19T04:21:47;20.20;99.90
14995;DHT22;7593;49.006;8.372;2022-08-19T04:24:15;20.20;99.90
14995;DHT22;7593;49.006;8.372;2022-08-19T04:26:42;20.20;99.90
14995;DHT22;7593;49.006;8.372;2022-08-19T04:29:11;20.20;99.90
14995;DHT22;7593;49.006;8.372;2022-08-19T04:31:41;20.20;99.90
14995;DHT22;7593;49.006;8.372;2022-08-19T04:34:11;20.20;99.90
14995;DHT22;7593;49.006;8.372;2022-08-19T04:36:40;20.20;99.90
14995;DHT22;7593;49.006;8.372;2022-08-19T04:39:09;20.20;99.90
14995;DHT22;7593;49.006;8.372;2022-08-19T04:41:36;20.20;99.90
14995;DHT22;7593;49.006;8.372;2022-08-19T04:44:20;20.20;99.90
14995;DHT22;7593;49.006;8.372;2022-08-19T04:46:49;20.20;99.90
14995;DHT22;7593;49.006;8.372;2022-08-19T04:49:18;20.20;99.90
14995;DHT22;7593;49.006;8.372;2022-08-19T04:51:48;20.20;99.90
14995;DHT22;7593;49.006;8.372;2022-08-19T04:54:15;20.30;99.90
14995;DHT22;7593;49.006;8.372;2022-08-19T04:56:43;20.30;99.90
14995;DHT22;7593;49.006;8.372;2022-08-19T04:59:10;20.40;99.90
14995;DHT22;7593;49.006;8.372;2022-08-19T05:01:37;20.40;99.90
14995;DHT22;7593;49.006;8.372;2022-08-19T05:04:06;20.50;99.90
14995;DHT22;7593;49.006;8.372;2022-08-19T05:06:33;20.50;99.90
14995;DHT22;7593;49.006;8.372;2022-08-19T05:09:01;20.50;99.90
14995;DHT22;7593;49.006;8.372;2022-08-19T05:11:31;20.50;99.90
14995;DHT22;7593;49.006;8.372;2022-08-19T05:13:58;20.60;99.90
14995;DHT22;7593;49.006;8.372;2022-08-19T05:16:27;20.60;99.90
14995;DHT22;7593;49.006;8.372;2022-08-19T05:18:54;20.60;99.90
14995;DHT22;7593;49.006;8.372;2022-08-19T05:21:41;20.60;99.90
14995;DHT22;7593;49.006;8.372;2022-08-19T05:24:26;20.60;99.90
14995;DHT22;7593;49.006;8.372;2022-08-19T05:26:54;20.60;99.90
14995;DHT22;7593;49.006;8.372;2022-08-19T05:29:25;20.60;99.90
14995;DHT22;7593;49.006;8.372;2022-08-19T05:31:54;20.60;99.90
14995;DHT22;7593;49.006;8.372;2022-08-19T05:34:23;20.60;99.90
14995;DHT22;7593;49.006;8.372;2022-08-19T05:36:56;20.60;99.90
14995;DHT22;7593;49.006;8.372;2022-08-19T05:39:26;20.60;99.90
14995;DHT22;7593;49.006;8.372;2022-08-19T05:41:56;20.60;99.90
14995;DHT22;7593;49.006;8.372;2022-08-19T05:44:24;20.60;99.90
14995;DHT22;7593;49.006;8.372;2022-08-19T05:46:51;20.70;99.90
14995;DHT22;7593;49.006;8.372;2022-08-19T05:49:20;20.60;99.90
14995;DHT22;7593;49.006;8.372;2022-08-19T05:51:48;20.70;99.90
14995;DHT22;7593;49.006;8.372;2022-08-19T05:54:19;20.70;99.90
14995;DHT22;7593;49.006;8.372;2022-08-19T05:56:46;20.80;99.90
14995;DHT22;7593;49.006;8.372;2022-08-19T05:59:15;20.80;99.90
14995;DHT22;7593;49.006;8.372;2022-08-19T06:01:44;20.80;99.90
14995;DHT22;7593;49.006;8.372;2022-08-19T06:04:12;20.90;99.90
14995;DHT22;7593;49.006;8.372;2022-08-19T06:06:40;21.00;99.90
14995;DHT22;7593;49.006;8.372;2022-08-19T06:09:07;20.90;99.90
14995;DHT22;7593;49.006;8.372;2022-08-19T06:11:38;21.00;99.90
14995;DHT22;7593;49.006;8.372;2022-08-19T06:14:13;21.00;99.90
14995;DHT22;7593;49.006;8.372;2022-08-19T06:16:42;21.00;99.90
14995;DHT22;7593;49.006;8.372;2022-08-19T06:19:12;21.10;99.90
14995;DHT22;7593;49.006;8.372;2022-08-19T06:21:42;21.10;99.90
14995;DHT22;7593;49.006;8.372;2022-08-19T06:24:12;21.10;99.90
14995;DHT22;7593;49.006;8.372;2022-08-19T06:26:48;21.10;99.90
14995;DHT22;7593;49.006;8.372;2022-08-19T06:29:17;21.10;99.90
14995;DHT22;7593;49.006;8.372;2022-08-19T06:31:46;21.10;99.90
14995;DHT22;7593;49.006;8.372;2022-08-19T06:34:15;21.10;99.90
14995;DHT22;7593;49.006;8.372;2022-08-19T06:36:44;21.10;99.90
14995;DHT22;7593;49.006;8.372;2022-08-19T06:39:13;21.10;99.90
14995;DHT22;7593;49.006;8.372;2022-08-19T06:41:41;21.20;99.90
14995;DHT22;7593;49.006;8.372;2022-08-19T06:44:10;21.20;99.90
14995;DHT22;7593;49.006;8.372;2022-08-19T06:46:39;21.30;99.90
14995;DHT22;7593;49.006;8.372;2022-08-19T06:49:06;21.30;99.90
14995;DHT22;7593;49.006;8.372;2022-08-19T06:51:37;21.40;99.90
14995;DHT22;7593;49.006;8.372;2022-08-19T06:54:04;21.50;99.90
14995;DHT22;7593;49.006;8.372;2022-08-19T06:56:31;21.50;99.90
14995;DHT22;7593;49.006;8.372;2022-08-19T06:59:00;21.60;99.90
14995;DHT22;7593;49.006;8.372;2022-08-19T07:01:29;21.60;99.90
14995;DHT22;7593;49.006;8.372;2022-08-19T07:03:56;21.70;99.90
14995;DHT22;7593;49.006;8.372;2022-08-19T07:06:23;21.70;99.90
14995;DHT22;7593;49.006;8.372;2022-08-19T07:08:50;21.70;99.90
14995;DHT22;7593;49.006;8.372;2022-08-19T07:11:18;21.80;99.90
14995;DHT22;7593;49.006;8.372;2022-08-19T07:13:46;21.80;99.90
14995;DHT22;7593;49.006;8.372;2022-08-19T07:16:17;21.90;99.90
14995;DHT22;7593;49.006;8.372;2022-08-19T07:18:47;22.00;99.90
14995;DHT22;7593;49.006;8.372;2022-08-19T07:21:17;22.10;99.90
14995;DHT22;7593;49.006;8.372;2022-08-19T07:23:44;22.20;99.90
14995;DHT22;7593;49.006;8.372;2022-08-19T07:26:14;22.30;99.90
14995;DHT22;7593;49.006;8.372;2022-08-19T07:28:42;22.40;99.90
14995;DHT22;7593;49.006;8.372;2022-08-19T07:31:10;22.50;99.90
14995;DHT22;7593;49.006;8.372;2022-08-19T07:33:39;22.70;99.90
14995;DHT22;7593;49.006;8.372;2022-08-19T07:36:14;22.80;99.90
14995;DHT22;7593;49.006;8.372;2022-08-19T07:38:47;23.00;99.90
14995;DHT22;7593;49.006;8.372;2022-08-19T07:41:17;23.10;99.90
14995;DHT22;7593;49.006;8.372;2022-08-19T07:43:44;23.30;99.90
14995;DHT22;7593;49.006;8.372;2022-08-19T07:46:12;23.40;99.90
14995;DHT22;7593;49.006;8.372;2022-08-19T07:48:40;23.50;99.90
14995;DHT22;7593;49.006;8.372;2022-08-19T07:51:19;23.50;99.90
14995;DHT22;7593;49.006;8.372;2022-08-19T07:53:48;23.50;99.90
14995;DHT22;7593;49.006;8.372;2022-08-19T07:56:17;23.40;99.90
14995;DHT22;7593;49.006;8.372;2022-08-19T07:58:46;23.40;99.90
14995;DHT22;7593;49.006;8.372;2022-08-19T08:01:16;23.40;99.90
14995;DHT22;7593;49.006;8.372;2022-08-19T08:03:43;23.40;99.90
14995;DHT22;7593;49.006;8.372;2022-08-19T08:06:29;23.50;99.90
14995;DHT22;7593;49.006;8.372;2022-08-19T08:09:13;23.50;99.90
14995;DHT22;7593;49.006;8.372;2022-08-19T08:11:48;23.50;99.90
14995;DHT22;7593;49.006;8.372;2022-08-19T08:14:17;23.50;99.90
14995;DHT22;7593;49.006;8.372;2022-08-19T08:16:44;23.60;99.90
14995;DHT22;7593;49.006;8.372;2022-08-19T08:19:12;23.80;99.90
14995;DHT22;7593;49.006;8.372;2022-08-19T08:21:42;24.00;99.90
14995;DHT22;7593;49.006;8.372;2022-08-19T08:24:10;24.20;99.90
14995;DHT22;7593;49.006;8.372;2022-08-19T08:26:38;24.40;99.90
14995;DHT22;7593;49.006;8.372;2022-08-19T08:29:04;24.50;99.90
14995;DHT22;7593;49.006;8.372;2022-08-19T08:31:33;24.80;99.90
14995;DHT22;7593;49.006;8.372;2022-08-19T08:34:03;25.00;99.90
14995;DHT22;7593;49.006;8.372;2022-08-19T08:36:30;25.20;99.90
14995;DHT22;7593;49.006;8.372;2022-08-19T08:39:00;25.50;99.90
14995;DHT22;7593;49.006;8.372;2022-08-19T08:41:34;25.60;99.90
14995;DHT22;7593;49.006;8.372;2022-08-19T08:44:02;25.80;99.90
14995;DHT22;7593;49.006;8.372;2022-08-19T08:46:35;25.80;99.90
14995;DHT22;7593;49.006;8.372;2022-08-19T08:49:15;25.80;99.90
14995;DHT22;7593;49.006;8.372;2022-08-19T08:51:51;25.80;99.90
14995;DHT22;7593;49.006;8.372;2022-08-19T08:54:21;26.00;99.90
14995;DHT22;7593;49.006;8.372;2022-08-19T08:56:51;26.10;99.90
14995;DHT22;7593;49.006;8.372;2022-08-19T08:59:23;26.40;99.90
14995;DHT22;7593;49.006;8.372;2022-08-19T09:01:52;26.70;99.90
14995;DHT22;7593;49.006;8.372;2022-08-19T09:04:19;26.80;99.90
14995;DHT22;7593;49.006;8.372;2022-08-19T09:06:55;27.00;99.90
14995;DHT22;7593;49.006;8.372;2022-08-19T09:09:30;27.40;99.90
14995;DHT22;7593;49.006;8.372;2022-08-19T09:12:07;27.60;99.90
14995;DHT22;7593;49.006;8.372;2022-08-19T09:14:44;27.40;99.90
14995;DHT22;7593;49.006;8.372;2022-08-19T09:17:13;27.40;99.90
14995;DHT22;7593;49.006;8.372;2022-08-19T09:19:49;27.30;99.90
14995;DHT22;7593;49.006;8.372;2022-08-19T09:22:16;27.60;99.90
14995;DHT22;7593;49.006;8.372;2022-08-19T09:24:48;28.00;99.90
14995;DHT22;7593;49.006;8.372;2022-08-19T09:27:15;28.40;99.50
14995;DHT22;7593;49.006;8.372;2022-08-19T09:29:42;28.60;98.70
14995;DHT22;7593;49.006;8.372;2022-08-19T09:32:09;28.60;98.30
14995;DHT22;7593;49.006;8.372;2022-08-19T09:34:36;28.50;98.10
14995;DHT22;7593;49.006;8.372;2022-08-19T09:37:03;28.40;97.90
14995;DHT22;7593;49.006;8.372;2022-08-19T09:39:30;28.50;97.30
14995;DHT22;7593;49.006;8.372;2022-08-19T09:41:58;28.60;96.90
14995;DHT22;7593;49.006;8.372;2022-08-19T09:44:26;28.90;96.90
14995;DHT22;7593;49.006;8.372;2022-08-19T09:46:53;29.40;96.10
14995;DHT22;7593;49.006;8.372;2022-08-19T09:49:20;30.00;95.30
14995;DHT22;7593;49.006;8.372;2022-08-19T09:51:50;30.80;94.20
14995;DHT22;7593;49.006;8.372;2022-08-19T09:54:17;31.40;92.50
14995;DHT22;7593;49.006;8.372;2022-08-19T09:56:44;31.50;91.60
14995;DHT22;7593;49.006;8.372;2022-08-19T09:59:16;31.30;91.60
14995;DHT22;7593;49.006;8.372;2022-08-19T10:01:43;31.30;91.60
14995;DHT22;7593;49.006;8.372;2022-08-19T10:04:10;31.50;91.50
14995;DHT22;7593;49.006;8.372;2022-08-19T10:06:39;31.90;90.20
14995;DHT22;7593;49.006;8.372;2022-08-19T10:09:08;32.10;89.50
14995;DHT22;7593;49.006;8.372;2022-08-19T10:11:36;32.30;89.40
14995;DHT22;7593;49.006;8.372;2022-08-19T10:14:06;32.50;88.40
14995;DHT22;7593;49.006;8.372;2022-08-19T10:16:37;32.70;87.80
14995;DHT22;7593;49.006;8.372;2022-08-19T10:19:05;32.50;87.60
14995;DHT22;7593;49.006;8.372;2022-08-19T10:21:33;32.00;89.00
14995;DHT22;7593;49.006;8.372;2022-08-19T10:24:02;31.50;88.70
14995;DHT22;7593;49.006;8.372;2022-08-19T10:26:33;31.30;89.50
14995;DHT22;7593;49.006;8.372;2022-08-19T10:29:02;30.90;90.40
14995;DHT22;7593;49.006;8.372;2022-08-19T10:31:32;30.80;90.10
14995;DHT22;7593;49.006;8.372;2022-08-19T10:34:00;31.30;89.20
14995;DHT22;7593;49.006;8.372;2022-08-19T10:36:29;31.80;87.70
14995;DHT22;7593;49.006;8.372;2022-08-19T10:38:59;32.10;86.50
14995;DHT22;7593;49.006;8.372;2022-08-19T10:41:29;32.50;85.00
14995;DHT22;7593;49.006;8.372;2022-08-19T10:43:58;32.90;83.90
14995;DHT22;7593;49.006;8.372;2022-08-19T10:46:27;32.90;83.90
14995;DHT22;7593;49.006;8.372;2022-08-19T10:48:54;33.00;82.80
14995;DHT22;7593;49.006;8.372;2022-08-19T10:51:22;33.50;82.30
14995;DHT22;7593;49.006;8.372;2022-08-19T10:54:07;33.80;81.60
14995;DHT22;7593;49.006;8.372;2022-08-19T10:56:34;34.70;79.50
14995;DHT22;7593;49.006;8.372;2022-08-19T10:59:20;35.20;78.80
14995;DHT22;7593;49.006;8.372;2022-08-19T11:01:48;35.50;77.00
14995;DHT22;7593;49.006;8.372;2022-08-19T11:04:17;35.10;77.20
14995;DHT22;7593;49.006;8.372;2022-08-19T11:06:46;34.40;78.30
14995;DHT22;7593;49.006;8.372;2022-08-19T11:09:14;33.70;79.30
14995;DHT22;7593;49.006;8.372;2022-08-19T11:11:42;33.50;79.70
14995;DHT22;7593;49.006;8.372;2022-08-19T11:14:10;33.20;79.90
14995;DHT22;7593;49.006;8.372;2022-08-19T11:16:37;32.80;80.50
14995;DHT22;7593;49.006;8.372;2022-08-19T11:19:05;32.40;81.60
14995;DHT22;7593;49.006;8.372;2022-08-19T11:21:35;32.40;82.30
14995;DHT22;7593;49.006;8.372;2022-08-19T11:24:07;32.30;81.80
14995;DHT22;7593;49.006;8.372;2022-08-19T11:26:35;32.10;82.50
14995;DHT22;7593;49.006;8.372;2022-08-19T11:29:03;31.70;83.40
14995;DHT22;7593;49.006;8.372;2022-08-19T11:31:33;31.30;84.20
14995;DHT22;7593;49.006;8.372;2022-08-19T11:34:03;30.90;85.30
14995;DHT22;7593;49.006;8.372;2022-08-19T11:36:31;30.60;85.70
14995;DHT22;7593;49.006;8.372;2022-08-19T11:38:59;30.50;85.70
14995;DHT22;7593;49.006;8.372;2022-08-19T11:41:27;30.40;86.20
14995;DHT22;7593;49.006;8.372;2022-08-19T11:43:54;30.80;86.00
14995;DHT22;7593;49.006;8.372;2022-08-19T11:46:24;31.30;85.10
14995;DHT22;7593;49.006;8.372;2022-08-19T11:48:51;31.90;83.20
14995;DHT22;7593;49.006;8.372;2022-08-19T11:51:21;32.60;81.80
14995;DHT22;7593;49.006;8.372;2022-08-19T11:53:50;33.30;80.50
14995;DHT22;7593;49.006;8.372;2022-08-19T11:56:17;34.00;78.90
14995;DHT22;7593;49.006;8.372;2022-08-19T11:58:46;34.60;77.10
14995;DHT22;7593;49.006;8.372;2022-08-19T12:01:14;35.00;76.70
14995;DHT22;7593;49.006;8.372;2022-08-19T12:03:42;35.10;74.60
14995;DHT22;7593;49.006;8.372;2022-08-19T12:06:13;35.10;73.70
14995;DHT22;7593;49.006;8.372;2022-08-19T12:08:41;34.90;72.90
14995;DHT22;7593;49.006;8.372;2022-08-19T12:11:08;34.90;72.80
14995;DHT22;7593;49.006;8.372;2022-08-19T12:13:36;34.90;72.20
14995;DHT22;7593;49.006;8.372;2022-08-19T12:16:10;34.80;72.70
14995;DHT22;7593;49.006;8.372;2022-08-19T12:18:38;34.10;73.70
14995;DHT22;7593;49.006;8.372;2022-08-19T12:21:06;33.40;75.20
14995;DHT22;7593;49.006;8.372;2022-08-19T12:23:35;32.70;76.90
14995;DHT22;7593;49.006;8.372;2022-08-19T12:26:03;32.00;78.50
14995;DHT22;7593;49.006;8.372;2022-08-19T12:28:30;31.40;80.20
14995;DHT22;7593;49.006;8.372;2022-08-19T12:30:57;30.90;81.20
14995;DHT22;7593;49.006;8.372;2022-08-19T12:33:25;30.40;81.90
14995;DHT22;7593;49.006;8.372;2022-08-19T12:35:54;30.10;83.20
14995;DHT22;7593;49.006;8.372;2022-08-19T12:38:21;29.70;83.80
14995;DHT22;7593;49.006;8.372;2022-08-19T12:40:49;29.50;84.40
14995;DHT22;7593;49.006;8.372;2022-08-19T12:43:17;29.20;84.20
14995;DHT22;7593;49.006;8.372;2022-08-19T12:45:45;29.00;84.60
14995;DHT22;7593;49.006;8.372;2022-08-19T12:48:12;29.00;85.40
14995;DHT22;7593;49.006;8.372;2022-08-19T12:50:42;29.40;84.50
14995;DHT22;7593;49.006;8.372;2022-08-19T12:53:10;30.00;82.10
14995;DHT22;7593;49.006;8.372;2022-08-19T12:55:37;30.50;80.10
14995;DHT22;7593;49.006;8.372;2022-08-19T12:58:04;31.10;79.10
14995;DHT22;7593;49.006;8.372;2022-08-19T13:00:31;31.80;77.00
14995;DHT22;7593;49.006;8.372;2022-08-19T13:02:59;32.40;75.40
14995;DHT22;7593;49.006;8.372;2022-08-19T13:05:28;33.00;74.40
14995;DHT22;7593;49.006;8.372;2022-08-19T13:07:58;33.60;73.80
14995;DHT22;7593;49.006;8.372;2022-08-19T13:10:28;34.30;70.50
14995;DHT22;7593;49.006;8.372;2022-08-19T13:12:57;34.80;69.00
14995;DHT22;7593;49.006;8.372;2022-08-19T13:15:25;35.10;68.90
14995;DHT22;7593;49.006;8.372;2022-08-19T13:17:54;35.30;67.30
14995;DHT22;7593;49.006;8.372;2022-08-19T13:20:21;35.30;66.70
14995;DHT22;7593;49.006;8.372;2022-08-19T13:22:48;35.20;66.50
14995;DHT22;7593;49.006;8.372;2022-08-19T13:25:17;35.00;67.20
14995;DHT22;7593;49.006;8.372;2022-08-19T13:27:45;34.90;64.10
14995;DHT22;7593;49.006;8.372;2022-08-19T13:30:14;35.00;63.20
14995;DHT22;7593;49.006;8.372;2022-08-19T13:32:59;35.20;62.40
14995;DHT22;7593;49.006;8.372;2022-08-19T13:35:41;35.40;60.10
14995;DHT22;7593;49.006;8.372;2022-08-19T13:38:09;35.40;60.10
14995;DHT22;7593;49.006;8.372;2022-08-19T13:40:38;35.60;59.70
14995;DHT22;7593;49.006;8.372;2022-08-19T13:43:05;35.70;59.80
14995;DHT22;7593;49.006;8.372;2022-08-19T13:45:33;35.90;59.40
14995;DHT22;7593;49.006;8.372;2022-08-19T13:48:02;35.90;57.70
14995;DHT22;7593;49.006;8.372;2022-08-19T13:50:32;35.60;58.20
14995;DHT22;7593;49.006;8.372;2022-08-19T13:53:00;35.50;58.70
14995;DHT22;7593;49.006;8.372;2022-08-19T13:55:27;35.60;58.40
14995;DHT22;7593;49.006;8.372;2022-08-19T13:57:59;35.80;58.00
14995;DHT22;7593;49.006;8.372;2022-08-19T14:00:29;35.70;58.40
14995;DHT22;7593;49.006;8.372;2022-08-19T14:02:57;35.70;58.00
14995;DHT22;7593;49.006;8.372;2022-08-19T14:05:25;35.40;58.20
14995;DHT22;7593;49.006;8.372;2022-08-19T14:07:53;34.80;59.20
14995;DHT22;7593;49.006;8.372;2022-08-19T14:10:20;34.30;60.00
14995;DHT22;7593;49.006;8.372;2022-08-19T14:12:48;34.00;60.50
14995;DHT22;7593;49.006;8.372;2022-08-19T14:15:16;33.90;60.80
14995;DHT22;7593;49.006;8.372;2022-08-19T14:17:44;33.70;61.30
14995;DHT22;7593;49.006;8.372;2022-08-19T14:20:13;33.50;62.20
14995;DHT22;7593;49.006;8.372;2022-08-19T14:22:43;33.40;63.00
14995;DHT22;7593;49.006;8.372;2022-08-19T14:25:12;33.20;63.20
14995;DHT22;7593;49.006;8.372;2022-08-19T14:27:40;33.10;63.70
14995;DHT22;7593;49.006;8.372;2022-08-19T14:30:09;32.90;64.80
14995;DHT22;7593;49.006;8.372;2022-08-19T14:32:38;32.60;64.30
14995;DHT22;7593;49.006;8.372;2022-08-19T14:35:06;32.40;64.70
14995;DHT22;7593;49.006;8.372;2022-08-19T14:37:33;32.30;65.30
14995;DHT22;7593;49.006;8.372;2022-08-19T14:40:00;32.20;65.20
14995;DHT22;7593;49.006;8.372;2022-08-19T14:42:27;32.20;65.20
14995;DHT22;7593;49.006;8.372;2022-08-19T14:44:57;32.10;65.40
14995;DHT22;7593;49.006;8.372;2022-08-19T14:47:24;32.00;66.20
14995;DHT22;7593;49.006;8.372;2022-08-19T14:49:53;31.80;65.20
14995;DHT22;7593;49.006;8.372;2022-08-19T14:52:21;31.80;65.80
14995;DHT22;7593;49.006;8.372;2022-08-19T14:54:48;31.80;66.00
14995;DHT22;7593;49.006;8.372;2022-08-19T14:57:15;31.70;66.10
14995;DHT22;7593;49.006;8.372;2022-08-19T14:59:42;31.60;66.30
14995;DHT22;7593;49.006;8.372;2022-08-19T15:02:09;31.40;66.50
14995;DHT22;7593;49.006;8.372;2022-08-19T15:04:36;31.20;66.80
14995;DHT22;7593;49.006;8.372;2022-08-19T15:07:05;31.00;67.30
14995;DHT22;7593;49.006;8.372;2022-08-19T15:09:33;30.80;68.00
14995;DHT22;7593;49.006;8.372;2022-08-19T15:12:01;30.60;69.00
14995;DHT22;7593;49.006;8.372;2022-08-19T15:14:28;30.30;71.10
14995;DHT22;7593;49.006;8.372;2022-08-19T15:17:00;30.00;72.00
14995;DHT22;7593;49.006;8.372;2022-08-19T15:19:28;29.80;73.20
14995;DHT22;7593;49.006;8.372;2022-08-19T15:21:56;29.50;73.70
14995;DHT22;7593;49.006;8.372;2022-08-19T15:24:24;29.30;74.20
14995;DHT22;7593;49.006;8.372;2022-08-19T15:26:52;29.20;75.20
14995;DHT22;7593;49.006;8.372;2022-08-19T15:29:19;29.10;75.50
14995;DHT22;7593;49.006;8.372;2022-08-19T15:31:46;29.10;75.20
14995;DHT22;7593;49.006;8.372;2022-08-19T15:34:13;29.10;75.40
14995;DHT22;7593;49.006;8.372;2022-08-19T15:36:40;29.10;74.30
14995;DHT22;7593;49.006;8.372;2022-08-19T15:39:08;29.10;73.50
14995;DHT22;7593;49.006;8.372;2022-08-19T15:41:36;29.00;72.90
14995;DHT22;7593;49.006;8.372;2022-08-19T15:44:07;29.00;72.30
14995;DHT22;7593;49.006;8.372;2022-08-19T15:46:36;29.00;72.10
14995;DHT22;7593;49.006;8.372;2022-08-19T15:49:04;29.00;72.10
14995;DHT22;7593;49.006;8.372;2022-08-19T15:51:33;29.10;71.80
14995;DHT22;7593;49.006;8.372;2022-08-19T15:54:01;29.10;71.70
14995;DHT22;7593;49.006;8.372;2022-08-19T15:56:28;29.10;71.60